createdAt,value
2024-04-08T00:00:24.519Z,26.91
2024-04-08T00:01:24.632Z,26.91
2024-04-08T00:02:24.730Z,26.89
2024-04-08T00:03:24.826Z,26.88
2024-04-08T00:04:25.016Z,26.91
2024-04-08T00:05:25.009Z,26.91
2024-04-08T00:06:25.102Z,26.89
2024-04-08T00:07:25.217Z,26.89
2024-04-08T00:08:25.345Z,26.89
2024-04-08T00:09:25.403Z,26.91
2024-04-08T00:10:25.510Z,26.89
2024-04-08T00:11:25.639Z,26.88
2024-04-08T00:12:25.688Z,26.91
2024-04-08T00:13:25.815Z,26.89
2024-04-08T00:14:25.946Z,26.89
2024-04-08T00:15:26.027Z,26.89
2024-04-08T00:16:26.106Z,26.88
2024-04-08T00:17:26.229Z,26.88
2024-04-08T00:18:26.304Z,26.88
2024-04-08T00:19:26.429Z,26.88
2024-04-08T00:20:26.509Z,26.88
2024-04-08T00:21:26.630Z,26.89
2024-04-08T00:22:26.750Z,26.88
2024-04-08T00:23:26.805Z,26.87
2024-04-08T00:24:26.926Z,26.89
2024-04-08T00:25:27.034Z,26.89
2024-04-08T00:26:27.156Z,26.88
2024-04-08T00:27:27.245Z,26.87
2024-04-08T00:28:27.341Z,26.88
2024-04-08T00:29:27.503Z,26.88
2024-04-08T00:30:27.544Z,26.85
2024-04-08T00:31:27.630Z,26.85
2024-04-08T00:32:27.784Z,26.87
2024-04-08T00:33:27.823Z,26.87
2024-04-08T00:34:27.967Z,26.87
2024-04-08T00:35:28.053Z,26.87
2024-04-08T00:36:28.153Z,26.84
2024-04-08T00:37:28.251Z,26.84
2024-04-08T00:38:28.385Z,26.88
2024-04-08T00:39:28.491Z,26.85
2024-04-08T00:40:28.567Z,26.88
2024-04-08T00:41:28.712Z,26.85
2024-04-08T00:42:28.761Z,26.87
2024-04-08T00:43:28.873Z,26.84
2024-04-08T00:44:28.997Z,26.82
2024-04-08T00:45:29.062Z,26.85
2024-04-08T00:46:29.178Z,26.84
2024-04-08T00:47:29.299Z,26.84
2024-04-08T00:48:29.363Z,26.84
2024-04-08T00:49:29.476Z,26.82
2024-04-08T00:50:29.561Z,26.84
2024-04-08T00:51:29.658Z,26.85
2024-04-08T00:52:30.564Z,26.84
2024-04-08T00:53:29.828Z,26.82
2024-04-08T00:54:29.853Z,26.81
2024-04-08T00:55:29.839Z,26.82
2024-04-08T00:56:29.856Z,26.81
2024-04-08T00:57:29.857Z,26.81
2024-04-08T00:58:29.889Z,26.81
2024-04-08T00:59:29.992Z,26.81
2024-04-08T01:00:29.929Z,26.82
2024-04-08T01:01:30.101Z,26.81
2024-04-08T01:02:30.126Z,26.79
2024-04-08T01:03:30.218Z,26.81
2024-04-08T01:04:30.368Z,26.78
2024-04-08T01:05:30.443Z,26.78
2024-04-08T01:06:30.521Z,26.78
2024-04-08T01:07:30.628Z,26.79
2024-04-08T01:08:30.770Z,26.79
2024-04-08T01:09:30.859Z,26.79
2024-04-08T01:10:30.908Z,26.79
2024-04-08T01:11:31.024Z,26.78
2024-04-08T01:12:31.156Z,26.79
2024-04-08T01:13:31.299Z,26.79
2024-04-08T01:14:31.420Z,26.79
2024-04-08T01:15:31.522Z,26.77
2024-04-08T01:16:31.537Z,26.78
2024-04-08T01:17:31.666Z,26.78
2024-04-08T01:18:31.738Z,26.81
2024-04-08T01:19:31.855Z,26.79
2024-04-08T01:20:31.939Z,26.78
2024-04-08T01:21:32.016Z,26.77
2024-04-08T01:22:32.115Z,26.78
2024-04-08T01:23:32.245Z,26.75
2024-04-08T01:24:32.343Z,26.78
2024-04-08T01:25:32.427Z,26.77
2024-04-08T01:26:32.536Z,26.75
2024-04-08T01:27:32.607Z,26.77
2024-04-08T01:28:32.708Z,26.78
2024-04-08T01:29:32.873Z,26.75
2024-04-08T01:30:32.920Z,26.73
2024-04-08T01:31:33.043Z,26.77
2024-04-08T01:32:33.095Z,26.78
2024-04-08T01:33:33.167Z,26.74
2024-04-08T01:34:33.300Z,26.74
2024-04-08T01:35:33.388Z,26.74
2024-04-08T01:36:33.444Z,26.75
2024-04-08T01:37:33.510Z,26.74
2024-04-08T01:38:33.652Z,26.71
2024-04-08T01:39:33.716Z,26.74
2024-04-08T01:40:33.806Z,26.75
2024-04-08T01:41:33.986Z,26.74
2024-04-08T01:42:33.969Z,26.74
2024-04-08T01:43:34.095Z,26.74
2024-04-08T01:44:34.204Z,26.73
2024-04-08T01:45:34.277Z,26.71
2024-04-08T01:46:34.382Z,26.71
2024-04-08T01:47:34.492Z,26.74
2024-04-08T01:48:34.528Z,26.73
2024-04-08T01:49:34.616Z,26.71
2024-04-08T01:50:34.745Z,26.71
2024-04-08T01:51:34.796Z,26.68
2024-04-08T01:52:34.900Z,26.73
2024-04-08T01:53:34.978Z,26.73
2024-04-08T01:54:35.095Z,26.73
2024-04-08T01:55:35.170Z,26.70
2024-04-08T01:56:35.309Z,26.73
2024-04-08T01:57:35.378Z,26.70
2024-04-08T01:58:35.450Z,26.73
2024-04-08T01:59:35.668Z,26.71
2024-04-08T02:00:35.707Z,26.70
2024-04-08T02:01:35.762Z,26.71
2024-04-08T02:02:36.623Z,26.71
2024-04-08T02:03:36.003Z,26.68
2024-04-08T02:04:36.148Z,26.71
2024-04-08T02:05:36.205Z,26.70
2024-04-08T02:06:36.294Z,26.70
2024-04-08T02:07:36.375Z,26.71
2024-04-08T02:08:36.506Z,26.70
2024-04-08T02:09:36.568Z,26.70
2024-04-08T02:10:36.636Z,26.70
2024-04-08T02:11:36.790Z,26.71
2024-04-08T02:12:36.895Z,26.68
2024-04-08T02:13:37.001Z,26.67
2024-04-08T02:14:37.096Z,26.68
2024-04-08T02:15:37.192Z,26.68
2024-04-08T02:16:37.262Z,26.67
2024-04-08T02:17:37.469Z,26.65
2024-04-08T02:18:37.444Z,26.68
2024-04-08T02:19:37.544Z,26.67
2024-04-08T02:20:37.696Z,26.68
2024-04-08T02:21:37.746Z,26.68
2024-04-08T02:22:37.870Z,26.68
2024-04-08T02:23:38.014Z,26.68
2024-04-08T02:24:38.106Z,26.67
2024-04-08T02:25:38.173Z,26.68
2024-04-08T02:26:38.288Z,26.67
2024-04-08T02:27:38.411Z,26.67
2024-04-08T02:28:38.497Z,26.67
2024-04-08T02:29:38.622Z,26.65
2024-04-08T02:30:38.733Z,26.67
2024-04-08T02:31:38.812Z,26.65
2024-04-08T02:32:38.963Z,26.67
2024-04-08T02:33:38.986Z,26.67
2024-04-08T02:34:39.133Z,26.67
2024-04-08T02:35:39.238Z,26.65
2024-04-08T02:36:39.273Z,26.65
2024-04-08T02:37:39.368Z,26.67
2024-04-08T02:38:39.477Z,26.65
2024-04-08T02:39:39.561Z,26.68
2024-04-08T02:40:39.644Z,26.67
2024-04-08T02:41:39.808Z,26.64
2024-04-08T02:42:41.355Z,26.62
2024-04-08T02:43:39.820Z,26.67
2024-04-08T02:44:39.867Z,26.65
2024-04-08T02:45:39.836Z,26.64
2024-04-08T02:46:39.797Z,26.64
2024-04-08T02:47:39.934Z,26.64
2024-04-08T02:48:39.833Z,26.64
2024-04-08T02:49:39.841Z,26.64
2024-04-08T02:50:39.945Z,26.65
2024-04-08T02:51:39.841Z,26.65
2024-04-08T02:52:39.815Z,26.64
2024-04-08T02:53:39.870Z,26.64
2024-04-08T02:54:39.815Z,26.65
2024-04-08T02:55:39.820Z,26.62
2024-04-08T02:56:39.876Z,26.65
2024-04-08T02:57:39.823Z,26.64
2024-04-08T02:58:39.812Z,26.62
2024-04-08T02:59:39.847Z,26.62
2024-04-08T03:00:39.851Z,26.62
2024-04-08T03:01:39.822Z,26.62
2024-04-08T03:02:39.965Z,26.62
2024-04-08T03:03:39.872Z,26.64
2024-04-08T03:04:39.872Z,26.62
2024-04-08T03:05:39.889Z,26.64
2024-04-08T03:06:39.857Z,26.62
2024-04-08T03:07:39.841Z,26.62
2024-04-08T03:08:39.866Z,26.61
2024-04-08T03:09:39.862Z,26.61
2024-04-08T03:10:39.888Z,26.61
2024-04-08T03:11:39.884Z,26.59
2024-04-08T03:12:39.959Z,26.59
2024-04-08T03:13:39.858Z,26.61
2024-04-08T03:14:39.955Z,26.59
2024-04-08T03:15:39.874Z,26.61
2024-04-08T03:16:39.890Z,26.61
2024-04-08T03:17:39.924Z,26.61
2024-04-08T03:18:39.874Z,26.58
2024-04-08T03:19:39.928Z,26.61
2024-04-08T03:20:40.038Z,26.59
2024-04-08T03:21:40.135Z,26.59
2024-04-08T03:22:40.236Z,26.58
2024-04-08T03:23:40.439Z,26.59
2024-04-08T03:24:40.508Z,26.59
2024-04-08T03:25:40.631Z,26.58
2024-04-08T03:26:40.825Z,26.59
2024-04-08T03:27:40.876Z,26.58
2024-04-08T03:28:40.963Z,26.58
2024-04-08T03:29:41.076Z,26.59
2024-04-08T03:30:41.133Z,26.58
2024-04-08T03:31:41.249Z,26.57
2024-04-08T03:32:41.408Z,26.58
2024-04-08T03:33:41.432Z,26.57
2024-04-08T03:34:41.516Z,26.57
2024-04-08T03:35:41.731Z,26.55
2024-04-08T03:36:41.817Z,26.54
2024-04-08T03:37:41.910Z,26.57
2024-04-08T03:38:42.110Z,26.58
2024-04-08T03:39:42.188Z,26.54
2024-04-08T03:40:42.319Z,26.55
2024-04-08T03:41:42.450Z,26.57
2024-04-08T03:42:42.489Z,26.58
2024-04-08T03:43:42.599Z,26.55
2024-04-08T03:44:42.694Z,26.57
2024-04-08T03:45:42.767Z,26.57
2024-04-08T03:46:42.893Z,26.55
2024-04-08T03:47:43.062Z,26.57
2024-04-08T03:48:43.121Z,26.57
2024-04-08T03:49:43.206Z,26.55
2024-04-08T03:50:43.398Z,26.54
2024-04-08T03:51:43.514Z,26.54
2024-04-08T03:52:43.672Z,26.54
2024-04-08T03:53:43.955Z,26.54
2024-04-08T03:54:43.959Z,26.54
2024-04-08T03:55:44.126Z,26.52
2024-04-08T03:56:44.194Z,26.52
2024-04-08T03:57:45.587Z,26.54
2024-04-08T03:58:44.403Z,26.52
2024-04-08T03:59:44.521Z,26.52
2024-04-08T04:00:44.622Z,26.51
2024-04-08T04:01:44.702Z,26.50
2024-04-08T04:02:44.819Z,26.51
2024-04-08T04:03:44.874Z,26.48
2024-04-08T04:04:44.977Z,26.51
2024-04-08T04:05:45.147Z,26.50
2024-04-08T04:06:45.202Z,26.51
2024-04-08T04:07:45.310Z,26.52
2024-04-08T04:08:45.440Z,26.51
2024-04-08T04:09:45.500Z,26.50
2024-04-08T04:10:45.607Z,26.50
2024-04-08T04:11:45.779Z,26.51
2024-04-08T04:12:45.788Z,26.50
2024-04-08T04:13:45.918Z,26.52
2024-04-08T04:14:47.800Z,26.50
2024-04-08T04:15:54.960Z,26.47
2024-04-08T04:16:54.930Z,26.48
2024-04-08T04:17:54.937Z,26.47
2024-04-08T04:18:54.944Z,26.48
2024-04-08T04:19:54.936Z,26.48
2024-04-08T04:20:54.999Z,26.47
2024-04-08T04:21:54.954Z,26.46
2024-04-08T04:22:54.944Z,26.48
2024-04-08T04:23:55.037Z,26.50
2024-04-08T04:24:54.980Z,26.47
2024-04-08T04:25:54.936Z,26.48
2024-04-08T04:26:55.034Z,26.48
2024-04-08T04:27:54.935Z,26.50
2024-04-08T04:28:54.944Z,26.48
2024-04-08T04:29:55.095Z,26.50
2024-04-08T04:31:04.359Z,26.43
2024-04-08T04:32:02.269Z,26.47
2024-04-08T04:33:02.286Z,26.46
2024-04-08T04:34:02.346Z,26.46
2024-04-08T04:35:02.352Z,26.46
2024-04-08T04:36:02.361Z,26.46
2024-04-08T04:37:02.431Z,26.47
2024-04-08T04:38:02.469Z,26.46
2024-04-08T04:39:02.504Z,26.47
2024-04-08T04:40:02.556Z,26.47
2024-04-08T04:41:02.603Z,26.47
2024-04-08T04:42:02.657Z,26.47
2024-04-08T04:43:02.704Z,26.47
2024-04-08T04:44:02.752Z,26.47
2024-04-08T04:45:02.806Z,26.47
2024-04-08T04:46:02.900Z,26.44
2024-04-08T04:47:03.014Z,26.44
2024-04-08T04:48:03.203Z,26.47
2024-04-08T04:49:03.266Z,26.46
2024-04-08T04:50:03.456Z,26.46
2024-04-08T04:51:03.557Z,26.48
2024-04-08T04:52:03.723Z,26.47
2024-04-08T04:53:03.890Z,26.46
2024-04-08T04:54:03.976Z,26.46
2024-04-08T04:55:04.083Z,26.46
2024-04-08T04:56:04.216Z,26.46
2024-04-08T04:57:04.286Z,26.46
2024-04-08T04:58:04.397Z,26.46
2024-04-08T04:59:04.512Z,26.46
2024-04-08T05:00:04.620Z,26.47
2024-04-08T05:01:04.748Z,26.47
2024-04-08T05:02:04.878Z,26.44
2024-04-08T05:03:04.997Z,26.44
2024-04-08T05:04:05.091Z,26.46
2024-04-08T05:05:05.225Z,26.44
2024-04-08T05:06:05.291Z,26.46
2024-04-08T05:07:05.380Z,26.44
2024-04-08T05:08:05.515Z,26.46
2024-04-08T05:09:05.632Z,26.43
2024-04-08T05:10:05.753Z,26.44
2024-04-08T05:11:08.111Z,26.44
2024-04-08T05:12:05.866Z,26.46
2024-04-08T05:13:05.851Z,26.46
2024-04-08T05:14:05.834Z,26.44
2024-04-08T05:15:05.878Z,26.44
2024-04-08T05:16:05.856Z,26.44
2024-04-08T05:17:05.871Z,26.44
2024-04-08T05:18:08.591Z,26.46
2024-04-08T05:19:05.860Z,26.43
2024-04-08T05:20:05.845Z,26.44
2024-04-08T05:21:05.863Z,26.47
2024-04-08T05:22:05.843Z,26.46
2024-04-08T05:23:05.877Z,26.44
2024-04-08T05:24:05.854Z,26.44
2024-04-08T05:25:05.878Z,26.44
2024-04-08T05:26:05.867Z,26.46
2024-04-08T05:27:05.879Z,26.46
2024-04-08T05:28:05.906Z,26.48
2024-04-08T05:29:05.867Z,26.44
2024-04-08T05:30:05.897Z,26.47
2024-04-08T05:31:05.874Z,26.47
2024-04-08T05:32:05.877Z,26.46
2024-04-08T05:33:06.050Z,26.47
2024-04-08T05:34:05.887Z,26.48
2024-04-08T05:35:05.884Z,26.47
2024-04-08T05:36:05.941Z,26.48
2024-04-08T05:37:05.879Z,26.47
2024-04-08T05:38:05.882Z,26.46
2024-04-08T05:39:05.905Z,26.50
2024-04-08T05:40:05.931Z,26.50
2024-04-08T05:41:05.891Z,26.48
2024-04-08T05:42:05.899Z,26.48
2024-04-08T05:43:05.881Z,26.48
2024-04-08T05:44:05.914Z,26.48
2024-04-08T05:45:06.028Z,26.51
2024-04-08T05:46:05.937Z,26.51
2024-04-08T05:47:05.907Z,26.52
2024-04-08T05:48:06.010Z,26.54
2024-04-08T05:49:05.889Z,26.54
2024-04-08T05:50:05.914Z,26.54
2024-04-08T05:51:05.993Z,26.57
2024-04-08T05:52:05.912Z,26.52
2024-04-08T05:53:05.921Z,26.54
2024-04-08T05:54:06.036Z,26.54
2024-04-08T05:55:06.079Z,26.52
2024-04-08T05:56:06.194Z,26.44
2024-04-08T05:57:06.288Z,26.40
2024-04-08T05:58:06.347Z,26.37
2024-04-08T05:59:06.441Z,26.33
2024-04-08T06:00:06.543Z,26.24
2024-04-08T06:01:06.635Z,26.13
2024-04-08T06:02:06.678Z,26.07
2024-04-08T06:03:06.797Z,26.01
2024-04-08T06:04:06.858Z,25.96
2024-04-08T06:05:06.975Z,25.93
2024-04-08T06:06:07.034Z,25.93
2024-04-08T06:07:07.156Z,25.92
2024-04-08T06:08:07.725Z,25.90
2024-04-08T06:09:07.957Z,25.89
2024-04-08T06:10:08.142Z,25.89
2024-04-08T06:11:09.100Z,25.86
2024-04-08T06:12:07.627Z,25.82
2024-04-08T06:13:07.580Z,25.79
2024-04-08T06:14:07.625Z,25.73
2024-04-08T06:15:07.763Z,25.66
2024-04-08T06:16:07.760Z,25.58
2024-04-08T06:17:07.809Z,25.59
2024-04-08T06:18:07.982Z,25.53
2024-04-08T06:19:07.874Z,25.53
2024-04-08T06:20:07.960Z,25.52
2024-04-08T06:21:08.140Z,25.53
2024-04-08T06:22:08.144Z,25.55
2024-04-08T06:23:08.239Z,25.56
2024-04-08T06:24:08.364Z,25.59
2024-04-08T06:25:08.565Z,25.62
2024-04-08T06:26:08.523Z,25.65
2024-04-08T06:27:08.583Z,25.69
2024-04-08T06:28:08.687Z,25.70
2024-04-08T06:29:08.820Z,25.68
2024-04-08T06:30:08.871Z,25.68
2024-04-08T06:31:09.097Z,25.61
2024-04-08T06:32:09.064Z,25.59
2024-04-08T06:33:09.262Z,25.55
2024-04-08T06:34:09.296Z,25.52
2024-04-08T06:35:09.392Z,25.42
2024-04-08T06:36:09.436Z,25.31
2024-04-08T06:37:09.559Z,25.25
2024-04-08T06:38:09.687Z,25.24
2024-04-08T06:39:09.816Z,25.25
2024-04-08T06:40:09.905Z,25.22
2024-04-08T06:41:10.027Z,25.28
2024-04-08T06:42:10.084Z,25.32
2024-04-08T06:43:10.172Z,25.42
2024-04-08T06:44:10.309Z,25.48
2024-04-08T06:45:10.374Z,25.53
2024-04-08T06:46:11.810Z,25.58
2024-04-08T06:47:10.484Z,25.63
2024-04-08T06:48:10.561Z,25.70
2024-04-08T06:49:10.582Z,22.86
2024-04-08T06:50:10.618Z,21.81
2024-04-08T06:51:10.653Z,22.47
2024-04-08T06:52:10.688Z,22.80
2024-04-08T06:53:10.758Z,23.05
2024-04-08T06:54:10.844Z,23.29
2024-04-08T06:55:10.971Z,23.55
2024-04-08T06:56:11.042Z,23.76
2024-04-08T06:57:11.132Z,23.99
2024-04-08T06:58:12.030Z,24.19
2024-04-08T06:59:11.253Z,24.36
2024-04-08T07:00:11.291Z,24.50
2024-04-08T07:01:11.373Z,24.70
2024-04-08T07:02:11.362Z,24.78
2024-04-08T07:03:11.441Z,24.94
2024-04-08T07:04:11.464Z,25.05
2024-04-08T07:05:11.481Z,25.18
2024-04-08T07:06:11.529Z,25.29
2024-04-08T07:07:11.552Z,25.39
2024-04-08T07:08:13.517Z,25.46
2024-04-08T07:09:11.576Z,25.58
2024-04-08T07:10:11.572Z,25.63
2024-04-08T07:11:11.566Z,25.73
2024-04-08T07:12:11.577Z,25.77
2024-04-08T07:13:11.569Z,25.85
2024-04-08T07:14:11.557Z,25.93
2024-04-08T07:15:11.568Z,25.96
2024-04-08T07:16:11.573Z,26.01
2024-04-08T07:17:11.582Z,26.04
2024-04-08T07:18:11.679Z,26.08
2024-04-08T07:19:11.591Z,26.13
2024-04-08T07:20:11.574Z,26.14
2024-04-08T07:21:11.588Z,26.19
2024-04-08T07:22:11.575Z,26.23
2024-04-08T07:23:11.576Z,26.24
2024-04-08T07:24:11.589Z,26.26
2024-04-08T07:25:11.590Z,26.28
2024-04-08T07:26:11.590Z,26.31
2024-04-08T07:27:11.723Z,26.33
2024-04-08T07:28:11.691Z,26.37
2024-04-08T07:29:11.593Z,26.36
2024-04-08T07:30:11.675Z,26.40
2024-04-08T07:31:11.607Z,26.41
2024-04-08T07:32:11.645Z,26.40
2024-04-08T07:33:11.669Z,26.46
2024-04-08T07:34:11.591Z,26.44
2024-04-08T07:35:11.613Z,26.46
2024-04-08T07:36:11.620Z,26.48
2024-04-08T07:37:11.597Z,26.50
2024-04-08T07:38:11.582Z,26.50
2024-04-08T07:40:11.666Z,26.51
2024-04-08T07:41:11.746Z,26.54
2024-04-08T07:42:11.885Z,26.52
2024-04-08T07:43:13.225Z,26.51
2024-04-08T07:44:12.063Z,26.51
2024-04-08T07:45:12.257Z,26.51
2024-04-08T07:46:12.371Z,26.57
2024-04-08T07:47:12.363Z,26.57
2024-04-08T07:48:12.496Z,26.62
2024-04-08T07:49:12.541Z,26.62
2024-04-08T07:50:12.656Z,26.64
2024-04-08T07:51:12.757Z,26.67
2024-04-08T07:52:12.840Z,26.67
2024-04-08T07:53:12.949Z,26.68
2024-04-08T07:54:13.077Z,26.73
2024-04-08T07:55:13.159Z,26.73
2024-04-08T07:56:13.263Z,26.74
2024-04-08T07:57:13.421Z,26.71
2024-04-08T07:58:13.494Z,26.71
2024-04-08T07:59:13.632Z,26.77
2024-04-08T08:00:13.813Z,26.79
2024-04-08T08:01:13.971Z,26.77
2024-04-08T08:02:13.928Z,26.78
2024-04-08T08:03:14.036Z,26.77
2024-04-08T08:04:14.156Z,26.81
2024-04-08T08:05:14.300Z,26.79
2024-04-08T08:06:14.682Z,26.81
2024-04-08T08:07:14.463Z,26.79
2024-04-08T08:08:14.584Z,26.82
2024-04-08T08:09:14.707Z,26.82
2024-04-08T08:10:14.806Z,26.84
2024-04-08T08:11:14.932Z,26.85
2024-04-08T08:12:14.998Z,26.85
2024-04-08T08:13:15.163Z,26.85
2024-04-08T08:14:15.198Z,26.87
2024-04-08T08:15:15.307Z,26.89
2024-04-08T08:16:15.415Z,26.89
2024-04-08T08:17:15.543Z,26.91
2024-04-08T08:18:19.013Z,26.89
2024-04-08T08:19:15.711Z,26.89
2024-04-08T08:20:15.656Z,26.92
2024-04-08T08:21:15.653Z,26.94
2024-04-08T08:22:15.637Z,26.94
2024-04-08T08:23:15.647Z,26.92
2024-04-08T08:24:15.688Z,26.94
2024-04-08T08:25:15.648Z,26.95
2024-04-08T08:26:15.659Z,26.94
2024-04-08T08:27:15.688Z,26.99
2024-04-08T08:28:15.686Z,26.97
2024-04-08T08:29:15.683Z,26.98
2024-04-08T08:30:15.689Z,27.01
2024-04-08T08:31:15.785Z,27.01
2024-04-08T08:32:15.660Z,27.01
2024-04-08T08:33:15.677Z,27.02
2024-04-08T08:34:15.697Z,27.03
2024-04-08T08:35:15.715Z,27.05
2024-04-08T08:36:15.745Z,27.02
2024-04-08T08:37:15.687Z,26.28
2024-04-08T08:38:15.676Z,26.47
2024-04-08T08:39:15.683Z,26.31
2024-04-08T08:40:15.688Z,26.36
2024-04-08T08:41:15.697Z,26.19
2024-04-08T08:42:15.821Z,25.73
2024-04-08T08:43:52.411Z,25.75
2024-04-08T08:44:52.416Z,25.83
2024-04-08T08:45:52.418Z,25.82
2024-04-08T08:46:52.397Z,25.82
2024-04-08T08:47:52.543Z,25.83
2024-04-08T08:48:52.395Z,25.08
2024-04-08T08:49:52.482Z,25.26
2024-04-08T08:50:52.424Z,25.19
2024-04-08T08:51:52.423Z,25.24
2024-04-08T08:52:52.390Z,25.24
2024-04-08T08:53:52.437Z,25.22
2024-04-08T08:54:52.440Z,25.24
2024-04-08T08:55:52.455Z,25.07
2024-04-08T08:56:52.444Z,25.11
2024-04-08T08:57:52.410Z,25.10
2024-04-08T08:58:52.408Z,25.14
2024-04-08T08:59:52.467Z,25.14
2024-04-08T09:00:52.532Z,25.19
2024-04-08T09:01:52.454Z,25.17
2024-04-08T09:02:52.508Z,25.22
2024-04-08T09:03:52.436Z,25.25
2024-04-08T09:04:52.430Z,25.31
2024-04-08T09:05:52.453Z,25.39
2024-04-08T09:06:52.467Z,25.43
2024-04-08T09:07:52.482Z,25.46
2024-04-08T09:08:52.462Z,25.49
2024-04-08T09:09:52.473Z,25.42
2024-04-08T09:10:52.482Z,25.41
2024-04-08T09:11:52.497Z,25.38
2024-04-08T09:12:52.503Z,25.33
2024-04-08T09:13:52.447Z,25.29
2024-04-08T09:14:52.550Z,25.38
2024-04-08T09:15:52.460Z,25.26
2024-04-08T09:16:52.520Z,25.24
2024-04-08T09:17:52.687Z,25.17
2024-04-08T09:18:52.801Z,25.24
2024-04-08T09:19:52.960Z,25.22
2024-04-08T09:20:53.133Z,25.17
2024-04-08T09:21:53.285Z,25.12
2024-04-08T09:22:53.375Z,25.14
2024-04-08T09:23:53.476Z,25.17
2024-04-08T09:24:53.548Z,25.21
2024-04-08T09:25:53.620Z,25.24
2024-04-08T09:26:53.748Z,25.21
2024-04-08T09:27:55.495Z,25.19
2024-04-08T09:28:54.460Z,25.25
2024-04-08T09:29:53.895Z,25.26
2024-04-08T09:30:53.911Z,25.33
2024-04-08T09:31:53.914Z,25.31
2024-04-08T09:32:55.313Z,25.36
2024-04-08T09:33:54.087Z,25.42
2024-04-08T09:34:54.122Z,25.42
2024-04-08T09:35:54.225Z,25.35
2024-04-08T09:36:54.307Z,25.38
2024-04-08T09:37:54.392Z,25.33
2024-04-08T09:38:54.565Z,25.24
2024-04-08T09:39:54.591Z,25.32
2024-04-08T09:40:54.704Z,25.41
2024-04-08T09:41:54.885Z,25.49
2024-04-08T09:42:54.875Z,25.58
2024-04-08T09:43:54.966Z,25.69
2024-04-08T09:44:55.072Z,25.79
2024-04-08T09:45:55.270Z,25.85
2024-04-08T09:46:55.198Z,25.95
2024-04-08T09:47:55.342Z,26.04
2024-04-08T09:48:55.361Z,26.13
2024-04-08T09:49:55.451Z,26.19
2024-04-08T09:50:55.630Z,26.26
2024-04-08T09:51:55.665Z,26.34
2024-04-08T09:52:55.758Z,26.40
2024-04-08T09:53:55.895Z,26.47
2024-04-08T09:54:56.035Z,26.51
2024-04-08T09:55:56.068Z,26.55
2024-04-08T09:56:56.194Z,26.61
2024-04-08T09:57:56.286Z,26.64
2024-04-08T09:58:56.411Z,26.70
2024-04-08T09:59:56.609Z,26.73
2024-04-08T10:00:56.695Z,26.75
2024-04-08T10:01:56.781Z,26.79
2024-04-08T10:02:56.933Z,26.82
2024-04-08T10:03:57.040Z,26.85
2024-04-08T10:04:57.170Z,26.88
2024-04-08T10:05:57.310Z,26.91
2024-04-08T10:06:57.364Z,26.91
2024-04-08T10:07:57.476Z,26.92
2024-04-08T10:08:57.618Z,26.97
2024-04-08T10:09:57.688Z,26.99
2024-04-08T10:10:57.806Z,27.01
2024-04-08T10:11:58.029Z,27.05
2024-04-08T10:12:58.054Z,27.05
2024-04-08T10:13:58.146Z,27.03
2024-04-08T10:14:58.279Z,27.03
2024-04-08T10:15:58.361Z,27.06
2024-04-08T10:16:58.459Z,27.09
2024-04-08T10:17:58.656Z,26.97
2024-04-08T10:18:58.692Z,26.97
2024-04-08T10:19:58.743Z,26.97
2024-04-08T10:20:58.888Z,26.99
2024-04-08T10:21:58.939Z,26.92
2024-04-08T10:22:59.078Z,26.94
2024-04-08T10:23:59.236Z,26.98
2024-04-08T10:24:59.494Z,26.91
2024-04-08T10:25:59.498Z,26.97
2024-04-08T10:26:59.679Z,26.95
2024-04-08T10:27:59.803Z,26.99
2024-04-08T10:28:59.933Z,27.02
2024-04-08T10:30:00.157Z,27.03
2024-04-08T10:31:00.233Z,27.06
2024-04-08T10:32:00.340Z,27.08
2024-04-08T10:33:00.544Z,27.08
2024-04-08T10:34:00.595Z,27.05
2024-04-08T10:35:00.726Z,27.08
2024-04-08T10:36:00.891Z,27.06
2024-04-08T10:37:01.036Z,27.08
2024-04-08T10:38:01.216Z,26.99
2024-04-08T10:39:01.339Z,26.70
2024-04-08T10:40:01.380Z,26.61
2024-04-08T10:41:01.486Z,26.51
2024-04-08T10:42:01.533Z,26.47
2024-04-08T10:43:01.622Z,26.47
2024-04-08T10:44:01.709Z,26.51
2024-04-08T10:45:01.918Z,26.52
2024-04-08T10:46:01.904Z,26.52
2024-04-08T10:47:01.960Z,26.54
2024-04-08T10:48:04.151Z,26.57
2024-04-08T10:49:02.006Z,26.59
2024-04-08T10:50:02.048Z,26.64
2024-04-08T10:51:02.087Z,26.67
2024-04-08T10:52:02.054Z,26.68
2024-04-08T10:53:02.038Z,26.71
2024-04-08T10:54:02.074Z,26.74
2024-04-08T10:55:02.038Z,26.75
2024-04-08T10:56:02.049Z,26.78
2024-04-08T10:57:02.052Z,26.82
2024-04-08T10:58:02.033Z,26.87
2024-04-08T10:59:02.016Z,26.91
2024-04-08T11:00:02.080Z,26.94
2024-04-08T11:01:02.067Z,26.95
2024-04-08T11:02:02.059Z,26.98
2024-04-08T11:03:02.201Z,27.03
2024-04-08T11:04:02.072Z,27.05
2024-04-08T11:05:02.055Z,27.09
2024-04-08T11:06:02.070Z,27.11
2024-04-08T11:07:02.044Z,27.13
2024-04-08T11:08:02.071Z,27.16
2024-04-08T11:09:02.127Z,27.18
2024-04-08T11:10:02.054Z,27.19
2024-04-08T11:11:02.117Z,27.19
2024-04-08T11:12:02.181Z,27.24
2024-04-08T11:13:02.055Z,27.24
2024-04-08T11:14:05.658Z,27.25
2024-04-08T11:15:02.098Z,27.28
2024-04-08T11:16:02.066Z,27.29
2024-04-08T11:17:02.068Z,27.32
2024-04-08T11:18:02.129Z,27.33
2024-04-08T11:19:02.083Z,27.35
2024-04-08T11:20:04.499Z,27.36
2024-04-08T11:21:02.093Z,27.39
2024-04-08T11:22:02.088Z,27.38
2024-04-08T11:23:02.085Z,27.39
2024-04-08T11:24:02.168Z,27.39
2024-04-08T11:25:02.114Z,27.40
2024-04-08T11:26:58.866Z,27.39
2024-04-08T11:27:51.005Z,27.40
2024-04-08T11:28:49.972Z,27.42
2024-04-08T11:29:50.037Z,27.35
2024-04-08T11:30:49.974Z,27.32
2024-04-08T11:31:49.983Z,27.32
2024-04-08T11:32:50.095Z,27.31
2024-04-08T11:33:50.087Z,27.35
2024-04-08T11:34:50.017Z,27.35
2024-04-08T11:35:50.061Z,27.11
2024-04-08T11:36:50.044Z,27.26
2024-04-08T11:37:50.118Z,27.31
2024-04-08T11:38:50.188Z,27.18
2024-04-08T11:39:50.216Z,27.13
2024-04-08T11:40:50.359Z,27.19
2024-04-08T11:41:50.480Z,27.21
2024-04-08T11:43:50.702Z,27.24
2024-04-08T11:44:50.812Z,27.28
2024-04-08T11:45:50.924Z,27.31
2024-04-08T11:46:51.047Z,27.31
2024-04-08T11:47:51.082Z,27.33
2024-04-08T11:48:51.138Z,27.36
2024-04-08T11:49:51.224Z,27.39
2024-04-08T11:50:51.406Z,27.40
2024-04-08T11:51:51.391Z,27.43
2024-04-08T11:52:51.446Z,27.43
2024-04-08T11:53:51.566Z,27.46
2024-04-08T11:54:58.791Z,27.45
2024-04-08T11:55:52.695Z,27.49
2024-04-08T11:56:51.700Z,27.48
2024-04-08T11:57:51.706Z,27.52
2024-04-08T11:58:51.685Z,27.50
2024-04-08T11:59:51.692Z,27.50
2024-04-08T12:00:51.704Z,27.56
2024-04-08T12:01:51.701Z,27.54
2024-04-08T12:02:51.721Z,27.54
2024-04-08T12:03:51.690Z,27.59
2024-04-08T12:04:51.758Z,27.60
2024-04-08T12:05:51.972Z,27.54
2024-04-08T12:06:52.046Z,27.60
2024-04-08T12:07:52.159Z,27.63
2024-04-08T12:08:52.354Z,27.67
2024-04-08T12:09:52.478Z,27.69
2024-04-08T12:10:52.497Z,27.73
2024-04-08T12:11:52.568Z,27.72
2024-04-08T12:12:52.618Z,27.70
2024-04-08T12:13:52.748Z,27.69
2024-04-08T12:14:52.891Z,27.69
2024-04-08T12:15:53.057Z,27.70
2024-04-08T12:16:53.143Z,27.73
2024-04-08T12:17:53.292Z,27.77
2024-04-08T12:18:53.376Z,27.79
2024-04-08T12:19:53.404Z,27.84
2024-04-08T12:20:53.545Z,27.90
2024-04-08T12:21:53.646Z,27.94
2024-04-08T12:22:53.740Z,27.97
2024-04-08T12:23:53.878Z,28.03
2024-04-08T12:24:53.898Z,28.05
2024-04-08T12:25:54.003Z,28.08
2024-04-08T12:26:54.132Z,28.08
2024-04-08T12:27:54.257Z,28.10
2024-04-08T12:28:54.332Z,28.08
2024-04-08T12:29:54.556Z,28.13
2024-04-08T12:30:57.560Z,28.15
2024-04-08T12:31:54.580Z,28.15
2024-04-08T12:32:54.637Z,28.20
2024-04-08T12:33:54.624Z,28.24
2024-04-08T12:34:54.578Z,28.25
2024-04-08T12:35:54.630Z,28.30
2024-04-08T12:36:54.595Z,28.34
2024-04-08T12:37:54.593Z,28.34
2024-04-08T12:38:54.654Z,28.41
2024-04-08T12:39:54.586Z,28.41
2024-04-08T12:40:54.617Z,28.44
2024-04-08T12:41:54.656Z,28.45
2024-04-08T12:42:54.596Z,28.48
2024-04-08T12:43:55.850Z,28.47
2024-04-08T12:44:54.625Z,28.47
2024-04-08T12:45:54.648Z,28.51
2024-04-08T12:46:54.595Z,28.52
2024-04-08T12:47:54.714Z,28.52
2024-04-08T12:48:54.820Z,28.56
2024-04-08T12:49:54.636Z,28.61
2024-04-08T12:50:54.727Z,28.65
2024-04-08T12:51:54.678Z,28.66
2024-04-08T12:52:54.836Z,28.72
2024-04-08T12:53:54.694Z,28.71
2024-04-08T12:54:54.621Z,28.75
2024-04-08T12:55:54.660Z,28.79
2024-04-08T12:56:54.745Z,28.82